Time;durP1;ratioP1;P1;durP2;ratioP2;P2;SDS_P1;SDS_P2;PMS_P1;PMS_P2;Temp;Humidity;BMP_temperature;BMP_pressure;BME280_temperature;BME280_humidity;BME280_pressure;Samples;Min_cycle;Max_cycle;Signal;HPM_P1;HPM_P2
2022/06/18 00:01:39;;;;;;;5.63;4.65;;;15.30;75.00;;;;;;5037548;27;95174;-42
2022/06/18 00:04:14;;;;;;;6.55;5.07;;;15.30;75.00;;;;;;5039605;27;95023;-41
2022/06/18 00:06:55;;;;;;;5.25;4.50;;;15.30;75.10;;;;;;5039882;28;95143;-41
2022/06/18 00:09:31;;;;;;;;;;;15.20;75.00;;;;;;5038420;27;96432;-42
2022/06/18 00:15:29;;;;;;;5.97;4.57;;;15.20;75.10;;;;;;5039015;27;95067;-41
2022/06/18 00:18:03;;;;;;;5.13;4.40;;;15.20;75.10;;;;;;5038637;27;95331;-41
2022/06/18 00:20:38;;;;;;;4.07;3.30;;;15.20;75.20;;;;;;5038512;27;95804;-43
2022/06/18 00:23:18;;;;;;;4.13;3.72;;;15.20;75.20;;;;;;5038544;27;95396;-41
2022/06/18 00:25:53;;;;;;;5.72;4.85;;;15.20;75.20;;;;;;5039006;27;94936;-41
2022/06/18 00:28:31;;;;;;;4.43;4.03;;;15.20;75.30;;;;;;5039310;27;95134;-41
2022/06/18 00:31:05;;;;;;;5.03;3.80;;;15.20;75.30;;;;;;5041766;27;95825;-43
2022/06/18 00:33:40;;;;;;;5.30;4.25;;;15.20;75.30;;;;;;5042109;27;95131;-41
2022/06/18 00:36:17;;;;;;;5.07;4.53;;;15.20;75.30;;;;;;5041240;28;95042;-41
2022/06/18 00:38:51;;;;;;;5.82;4.10;;;15.20;75.30;;;;;;5041983;27;95321;-41
2022/06/18 00:41:25;;;;;;;4.85;4.25;;;15.20;75.30;;;;;;5041841;27;95832;-41
2022/06/18 00:44:06;;;;;;;4.03;3.63;;;15.20;75.40;;;;;;5041838;28;95332;-42
2022/06/18 00:47:06;;;;;;;5.05;4.53;;;15.20;71.40;;;;;;5043249;27;94925;-42
2022/06/18 00:50:10;;;;;;;5.32;4.05;;;15.20;65.20;;;;;;5043526;28;95140;-41
2022/06/18 00:53:11;;;;;;;5.05;4.43;;;15.20;75.50;;;;;;5031480;27;96125;-41
2022/06/18 00:55:58;;;;;;;5.78;4.47;;;15.20;75.70;;;;;;5037654;28;95429;-40
2022/06/18 00:58:44;;;;;;;6.90;5.40;;;15.20;75.60;;;;;;5041326;27;94997;-43
2022/06/18 01:01:26;;;;;;;6.05;5.45;;;15.20;75.70;;;;;;5040664;27;95485;-40
2022/06/18 01:03:59;;;;;;;7.93;6.70;;;15.20;75.80;;;;;;5042107;28;96523;-41
2022/06/18 01:06:34;;;;;;;8.27;6.78;;;15.20;75.90;;;;;;5041418;28;95504;-40
2022/06/18 01:09:12;;;;;;;10.38;7.18;;;15.20;75.90;;;;;;5039930;27;95054;-41
2022/06/18 01:11:48;;;;;;;7.43;6.68;;;15.20;76.00;;;;;;5041389;27;95372;-41
2022/06/18 01:14:20;;;;;;;8.55;6.65;;;15.20;75.90;;;;;;5041382;28;95925;-42
2022/06/18 01:16:55;;;;;;;9.68;5.88;;;15.30;75.90;;;;;;5040700;27;95704;-41
2022/06/18 01:19:49;;;;;;;8.73;6.43;;;15.30;75.80;;;;;;5040162;28;95044;-39
2022/06/18 01:23:14;;;;;;;7.25;5.53;;;15.30;69.70;;;;;;5042098;27;95179;-41
2022/06/18 01:25:49;;;;;;;9.02;6.43;;;15.30;67.60;;;;;;5026032;27;95829;-41
2022/06/18 01:28:22;;;;;;;8.23;6.10;;;15.30;75.70;;;;;;5041157;27;94893;-41
2022/06/18 01:30:54;;;;;;;6.10;5.32;;;15.30;75.70;;;;;;5041637;27;94902;-41
2022/06/18 01:33:28;;;;;;;7.57;5.60;;;15.40;75.60;;;;;;5041148;27;95307;-41
2022/06/18 01:36:04;;;;;;;7.00;6.00;;;15.40;75.60;;;;;;5040714;27;96207;-41
2022/06/18 01:38:45;;;;;;;7.47;6.25;;;15.40;75.50;;;;;;5039474;28;96143;-41
2022/06/18 01:44:49;;;;;;;8.68;5.82;;;15.40;75.40;;;;;;5039760;27;95507;-41
2022/06/18 01:47:47;;;;;;;7.22;5.45;;;15.50;75.40;;;;;;5039862;27;95837;-42
2022/06/18 01:50:36;;;;;;;5.80;5.22;;;15.50;75.30;;;;;;5040449;27;95496;-42
2022/06/18 01:53:31;;;;;;;7.47;5.05;;;15.50;75.30;;;;;;5042581;27;94998;-42
2022/06/18 01:56:21;;;;;;;7.00;5.88;;;15.60;75.30;;;;;;5041918;27;95317;-42
2022/06/18 01:59:05;;;;;;;6.65;5.20;;;15.60;75.30;;;;;;5040897;27;96124;-42
2022/06/18 02:02:04;;;;;;;5.43;4.88;;;15.60;75.30;;;;;;5038367;27;95454;-43
2022/06/18 02:04:37;;;;;;;7.45;5.20;;;15.70;75.20;;;;;;5041893;28;94954;-43
2022/06/18 02:07:12;;;;;;;5.68;5.13;;;15.70;75.20;;;;;;5040445;27;95412;-42
2022/06/18 02:10:06;;;;;;;5.22;4.72;;;15.70;75.20;;;;;;5040616;28;96504;-43
2022/06/18 02:12:43;;;;;;;4.57;3.97;;;15.70;75.10;;;;;;5040545;27;95205;-44
2022/06/18 02:15:41;;;;;;;4.78;4.05;;;15.70;75.10;;;;;;5040518;27;95004;-42
2022/06/18 02:18:16;;;;;;;4.63;4.03;;;15.80;75.20;;;;;;5022871;28;95377;-43
2022/06/18 02:20:56;;;;;;;4.82;4.07;;;15.80;75.80;;;;;;5040354;27;95873;-43
2022/06/18 02:23:29;;;;;;;5.20;4.70;;;15.80;75.20;;;;;;5040049;27;95383;-43
2022/06/18 02:26:02;;;;;;;4.60;3.65;;;15.90;75.20;;;;;;5040803;27;94954;-43
2022/06/18 02:28:43;;;;;;;5.75;4.65;;;15.90;75.20;;;;;;5039464;28;95254;-43
2022/06/18 02:31:18;;;;;;;7.30;5.47;;;15.90;75.20;;;;;;5040289;27;95838;-43
2022/06/18 02:33:58;;;;;;;5.88;4.88;;;16.00;75.10;;;;;;5038660;27;95636;-43
2022/06/18 02:36:37;;;;;;;6.05;5.45;;;16.00;72.90;;;;;;5040279;27;94993;-43
2022/06/18 02:39:38;;;;;;;7.25;5.20;;;16.10;75.10;;;;;;5040553;28;95088;-42
2022/06/18 02:42:19;;;;;;;10.57;6.57;;;16.10;75.00;;;;;;5040014;27;96025;-43
2022/06/18 02:44:55;;;;;;;7.70;5.82;;;16.10;74.90;;;;;;5039882;27;95836;-43
2022/06/18 02:47:27;;;;;;;8.23;6.00;;;16.20;74.90;;;;;;5040307;27;94981;-43
2022/06/18 02:50:04;;;;;;;7.47;6.30;;;16.20;74.90;;;;;;5041782;27;95045;-42
2022/06/18 02:52:47;;;;;;;8.88;6.10;;;16.20;74.80;;;;;;5040058;27;95874;-42
2022/06/18 02:55:27;;;;;;;11.35;6.65;;;16.30;74.80;;;;;;5039107;27;95734;-43
2022/06/18 02:58:12;;;;;;;8.65;5.95;;;16.30;74.70;;;;;;5039103;27;94964;-42
2022/06/18 03:00:53;;;;;;;9.85;6.80;;;16.40;74.70;;;;;;5038279;27;95428;-43
2022/06/18 03:03:31;;;;;;;8.15;6.20;;;16.40;74.60;;;;;;5040016;27;96005;-43
2022/06/18 03:06:07;;;;;;;8.65;6.07;;;16.40;74.50;;;;;;5039639;27;95726;-42
2022/06/18 03:08:46;;;;;;;10.80;7.03;;;16.50;74.40;;;;;;5038143;27;95249;-42
2022/06/18 03:14:15;;;;;;;8.55;6.40;;;16.50;74.30;;;;;;5038144;27;96487;-42
2022/06/18 03:16:49;;;;;;;17.92;10.80;;;16.60;74.20;;;;;;5037339;27;95807;-43
2022/06/18 03:19:45;;;;;;;30.85;19.73;;;16.60;74.40;;;;;;5038829;28;94941;-44
2022/06/18 03:22:22;;;;;;;50.67;28.75;;;16.70;75.10;;;;;;5038822;27;94821;-44
2022/06/18 03:25:22;;;;;;;58.60;34.13;;;16.90;75.40;;;;;;5020721;28;95873;-45
2022/06/18 03:27:54;;;;;;;58.22;36.00;;;17.00;73.50;;;;;;5036602;27;95934;-45
2022/06/18 03:30:27;;;;;;;53.92;34.53;;;17.00;75.40;;;;;;5038300;27;94981;-45
2022/06/18 03:32:59;;;;;;;55.58;35.00;;;17.10;75.30;;;;;;5038563;28;95195;-45
2022/06/18 03:35:34;;;;;;;63.45;35.50;;;17.10;75.30;;;;;;5037901;27;96231;-45
2022/06/18 03:38:07;;;;;;;54.05;32.33;;;17.10;75.30;;;;;;5038143;27;95225;-45
2022/06/18 03:40:41;;;;;;;56.25;35.10;;;17.10;75.20;;;;;;5038510;28;95651;-45
2022/06/18 03:43:15;;;;;;;54.42;33.88;;;17.20;75.30;;;;;;5037021;27;95368;-45
2022/06/18 03:45:50;;;;;;;51.40;30.50;;;17.20;75.20;;;;;;5038511;28;95928;-44
2022/06/18 03:48:33;;;;;;;54.85;32.53;;;17.20;75.20;;;;;;5037666;27;96095;-46
2022/06/18 03:51:09;;;;;;;40.85;27.75;;;17.20;75.10;;;;;;5038028;27;94813;-46
2022/06/18 03:53:42;;;;;;;45.67;30.15;;;17.30;75.00;;;;;;5039529;28;95187;-45
2022/06/18 03:56:24;;;;;;;41.70;27.80;;;17.30;74.90;;;;;;5038820;27;95529;-46
2022/06/18 03:58:57;;;;;;;44.85;28.38;;;17.30;74.60;;;;;;5038235;27;95209;-46
2022/06/18 04:01:40;;;;;;;43.25;26.88;;;17.40;74.50;;;;;;5037753;27;95327;-44
2022/06/18 04:04:15;;;;;;;48.72;29.88;;;17.50;74.70;;;;;;5038560;27;95323;-42
2022/06/18 04:06:55;;;;;;;;;;;17.60;74.60;;;;;;5038699;27;95923;-45
2022/06/18 04:09:56;;;;;;;39.67;24.85;;;17.60;74.50;;;;;;5039835;27;96006;-44
2022/06/18 04:12:29;;;;;;;41.03;25.85;;;17.70;74.10;;;;;;5037748;27;95070;-44
2022/06/18 04:15:35;;;;;;;34.63;21.70;;;17.70;74.00;;;;;;5026330;27;95076;-44
2022/06/18 04:18:15;;;;;;;40.90;23.42;;;17.70;73.90;;;;;;5036237;28;96172;-45
2022/06/18 04:20:49;;;;;;;35.30;22.30;;;17.70;73.90;;;;;;5035951;28;95362;-44
2022/06/18 04:23:21;;;;;;;30.58;20.27;;;17.70;73.90;;;;;;5010828;27;96859;-44
2022/06/18 04:25:55;;;;;;;33.30;20.58;;;17.80;73.70;;;;;;5015721;27;96223;-43
2022/06/18 04:28:28;;;;;;;27.58;18.65;;;17.80;73.50;;;;;;5016742;27;96467;-43
2022/06/18 04:31:10;;;;;;;32.33;19.90;;;17.80;73.40;;;;;;5010374;27;97935;-44
2022/06/18 04:33:44;;;;;;;29.38;19.25;;;17.90;73.40;;;;;;5017784;27;99795;-43
2022/06/18 04:36:38;;;;;;;31.23;18.38;;;17.80;73.10;;;;;;5016508;27;95824;-43
2022/06/18 04:39:33;;;;;;;31.48;17.67;;;17.90;72.70;;;;;;5014277;27;98049;-44
2022/06/18 04:42:17;;;;;;;25.80;14.65;;;17.90;72.90;;;;;;5023016;27;97984;-43
2022/06/18 04:44:49;;;;;;;26.08;15.32;;;17.90;72.80;;;;;;5017754;27;95916;-43
2022/06/18 04:47:26;;;;;;;23.83;14.57;;;17.90;72.60;;;;;;4997303;27;95633;-42
2022/06/18 04:50:06;;;;;;;22.52;13.30;;;17.90;72.60;;;;;;5020572;27;98197;-44
2022/06/18 04:52:39;;;;;;;22.13;12.10;;;17.90;72.50;;;;;;5019640;27;97631;-43
2022/06/18 04:55:13;;;;;;;20.95;12.93;;;17.90;72.00;;;;;;5017667;27;95517;-43
2022/06/18 04:57:44;;;;;;;20.65;11.57;;;17.90;72.00;;;;;;5015694;27;96073;-44
2022/06/18 05:00:16;;;;;;;21.23;12.18;;;18.00;72.00;;;;;;5012437;27;96482;-44
2022/06/18 05:03:05;;;;;;;15.67;10.30;;;18.00;72.00;;;;;;5000609;28;102172;-44
2022/06/18 05:05:58;;;;;;;;;;;18.00;71.90;;;;;;4999005;28;96146;-43
2022/06/18 05:08:59;;;;;;;13.65;9.70;;;18.00;71.80;;;;;;4993873;28;96910;-44
2022/06/18 05:11:46;;;;;;;15.70;9.55;;;18.00;71.90;;;;;;5014185;27;96494;-44
2022/06/18 05:14:25;;;;;;;14.52;9.73;;;17.90;71.80;;;;;;4992925;28;98279;-44
2022/06/18 05:17:05;;;;;;;14.77;8.98;;;17.90;71.90;;;;;;4996419;28;95933;-44
2022/06/18 05:19:39;;;;;;;15.88;10.15;;;17.90;71.90;;;;;;5004024;28;95803;-44
2022/06/18 05:22:11;;;;;;;10.98;8.23;;;17.90;72.00;;;;;;5001916;28;96920;-44
2022/06/18 05:24:43;;;;;;;11.27;8.75;;;17.90;72.00;;;;;;5002853;28;95994;-44
2022/06/18 05:27:23;;;;;;;12.32;7.80;;;18.00;72.30;;;;;;5002200;28;96021;-45
2022/06/18 05:29:56;;;;;;;13.68;8.38;;;18.00;72.20;;;;;;4998759;28;95918;-44
2022/06/18 05:32:39;;;;;;;13.45;9.30;;;18.10;72.10;;;;;;5010815;27;96133;-45
2022/06/18 05:35:12;;;;;;;10.90;8.27;;;18.10;72.20;;;;;;5018793;27;96241;-45
2022/06/18 05:37:44;;;;;;;13.23;8.60;;;18.20;72.30;;;;;;5020975;27;95382;-45
2022/06/18 05:40:16;;;;;;;12.60;8.13;;;18.20;72.20;;;;;;5022879;27;95722;-42
2022/06/18 05:42:48;;;;;;;13.57;8.75;;;18.20;72.20;;;;;;5020170;27;96912;-46
2022/06/18 05:45:22;;;;;;;13.57;8.40;;;18.20;72.30;;;;;;5013948;27;95910;-41
2022/06/18 05:47:53;;;;;;;11.40;7.50;;;18.20;72.20;;;;;;4984989;28;96433;-44
2022/06/18 05:50:25;;;;;;;9.70;6.95;;;18.30;72.20;;;;;;5000957;28;95918;-42
2022/06/18 05:52:57;;;;;;;10.77;6.97;;;18.30;72.20;;;;;;5001364;28;96526;-42
2022/06/18 05:55:51;;;;;;;12.25;8.13;;;18.30;72.20;;;;;;4993600;28;97497;-41
2022/06/18 05:58:49;;;;;;;9.27;6.93;;;18.30;72.10;;;;;;4992968;28;96818;-41
2022/06/18 06:01:28;;;;;;;8.82;7.18;;;18.30;72.00;;;;;;4990597;28;96667;-42
2022/06/18 06:04:04;;;;;;;10.45;6.72;;;18.40;72.00;;;;;;4996252;28;96464;-41
2022/06/18 06:06:42;;;;;;;10.40;6.97;;;18.40;72.00;;;;;;5002627;28;96283;-41
2022/06/18 06:11:28;;;;;;;10.32;7.13;;;18.40;71.90;;;;;;4999495;28;97127;-41
2022/06/18 06:12:12;;;;;;;10.35;7.10;;;18.40;72.00;;;;;;4998070;28;95350;-41
2022/06/18 06:14:44;;;;;;;10.35;6.65;;;18.40;71.90;;;;;;5012917;28;98028;-41
2022/06/18 06:17:20;;;;;;;9.13;6.45;;;18.50;71.90;;;;;;5000836;28;97391;-42
2022/06/18 06:20:00;;;;;;;10.68;6.07;;;18.40;71.80;;;;;;4997714;28;95809;-45
2022/06/18 06:22:31;;;;;;;8.75;5.90;;;18.40;71.70;;;;;;4996404;28;95842;-41
2022/06/18 06:25:06;;;;;;;10.55;6.38;;;18.50;71.80;;;;;;4997003;28;96738;-41
2022/06/18 06:27:38;;;;;;;9.95;6.38;;;18.40;71.60;;;;;;4993345;28;95850;-41
2022/06/18 06:30:15;;;;;;;11.57;6.88;;;18.40;71.70;;;;;;4994931;28;95612;-42
2022/06/18 06:32:51;;;;;;;12.20;7.10;;;18.40;72.20;;;;;;4994600;28;95724;-41
2022/06/18 06:35:26;;;;;;;11.05;6.68;;;18.40;71.70;;;;;;4992264;28;96418;-40
2022/06/18 06:37:57;;;;;;;9.88;6.07;;;18.40;71.80;;;;;;4991984;28;95813;-42
2022/06/18 06:40:28;;;;;;;10.05;6.78;;;18.30;71.70;;;;;;4994282;28;95721;-42
2022/06/18 06:43:01;;;;;;;7.20;5.35;;;18.30;71.70;;;;;;5000216;28;95967;-41
2022/06/18 06:45:35;;;;;;;12.02;5.53;;;18.30;71.70;;;;;;4991561;27;98450;-41
2022/06/18 06:48:06;;;;;;;8.40;5.55;;;18.30;72.50;;;;;;5019497;27;95532;-41
2022/06/18 06:50:37;;;;;;;;;;;18.30;71.90;;;;;;5017042;27;96155;-41
2022/06/18 06:53:10;;;;;;;8.85;5.22;;;18.20;72.10;;;;;;5016506;27;95747;-42
2022/06/18 06:58:33;;;;;;;10.40;5.55;;;18.20;72.20;;;;;;5016759;27;95978;-42
2022/06/18 07:01:05;;;;;;;9.27;5.60;;;18.20;72.30;;;;;;5002221;27;96741;-41
2022/06/18 07:03:42;;;;;;;8.38;5.90;;;18.10;72.60;;;;;;4997039;28;95346;-41
2022/06/18 07:06:16;;;;;;;6.70;5.10;;;18.10;72.70;;;;;;4997597;28;96008;-41
2022/06/18 07:08:48;;;;;;;8.10;5.60;;;18.00;72.70;;;;;;4996213;28;96018;-41
2022/06/18 07:11:18;;;;;;;5.95;4.57;;;18.00;72.70;;;;;;4990944;28;95671;-40
2022/06/18 07:13:49;;;;;;;10.47;5.43;;;18.00;72.70;;;;;;4994247;28;95717;-41
2022/06/18 07:16:19;;;;;;;6.93;4.50;;;18.00;72.70;;;;;;4990876;28;96926;-41
2022/06/18 07:18:55;;;;;;;6.28;5.10;;;18.00;72.70;;;;;;4989901;28;95838;-42
2022/06/18 07:21:33;;;;;;;7.55;5.40;;;18.00;72.80;;;;;;4992292;28;96800;-41
2022/06/18 07:24:07;;;;;;;7.75;5.55;;;18.00;72.90;;;;;;4994327;28;95736;-42
2022/06/18 07:26:38;;;;;;;7.35;6.00;;;18.00;72.80;;;;;;4991018;28;96078;-41
2022/06/18 07:29:09;;;;;;;5.90;5.13;;;17.90;72.90;;;;;;4988233;28;95855;-42
2022/06/18 07:31:42;;;;;;;7.75;5.70;;;17.90;73.20;;;;;;4989066;28;95851;-42
2022/06/18 07:34:14;;;;;;;8.65;5.18;;;17.80;72.70;;;;;;4999696;28;95995;-41
2022/06/18 07:36:47;;;;;;;6.07;5.22;;;17.80;73.30;;;;;;4992933;28;96411;-42
2022/06/18 07:39:17;;;;;;;;;;;17.80;73.30;;;;;;4993658;28;96331;-41
2022/06/18 07:41:55;;;;;;;10.88;5.15;;;17.80;73.50;;;;;;4995239;28;95262;-42
2022/06/18 07:44:28;;;;;;;6.70;5.00;;;17.70;73.50;;;;;;4990834;28;95834;-41
2022/06/18 07:47:02;;;;;;;7.70;5.93;;;17.70;73.50;;;;;;4989573;28;95976;-42
2022/06/18 07:49:34;;;;;;;7.95;5.95;;;17.70;73.60;;;;;;4996562;28;95946;-41
2022/06/18 07:55:02;;;;;;;7.13;5.50;;;17.70;73.50;;;;;;4994105;28;95716;-42
2022/06/18 07:57:36;;;;;;;9.75;5.88;;;17.70;73.60;;;;;;4998942;28;96076;-42
2022/06/18 08:00:10;;;;;;;6.75;5.13;;;17.60;73.60;;;;;;4996760;28;97907;-42
2022/06/18 08:02:44;;;;;;;7.35;5.97;;;17.70;73.70;;;;;;4990075;28;95488;-41
2022/06/18 08:05:27;;;;;;;6.28;5.22;;;17.60;73.60;;;;;;4995940;28;95681;-41
2022/06/18 08:07:59;;;;;;;6.50;5.43;;;17.60;73.60;;;;;;4999242;28;96847;-41
2022/06/18 08:10:53;;;;;;;7.20;5.13;;;17.60;73.40;;;;;;4992151;28;96102;-42
2022/06/18 08:13:26;;;;;;;6.53;5.20;;;17.60;73.70;;;;;;4996350;28;95652;-41
2022/06/18 08:16:00;;;;;;;7.35;5.53;;;17.60;73.70;;;;;;4984811;28;97375;-41
2022/06/18 08:18:31;;;;;;;9.50;5.22;;;17.60;73.80;;;;;;4989884;28;96690;-41
2022/06/18 08:21:13;;;;;;;6.20;5.13;;;17.60;74.00;;;;;;4992674;28;96866;-41
2022/06/18 08:23:46;;;;;;;6.00;4.53;;;17.50;74.10;;;;;;4995407;28;95890;-42
2022/06/18 08:26:19;;;;;;;8.35;5.50;;;17.60;74.40;;;;;;4991885;28;95887;-42
2022/06/18 08:28:53;;;;;;;7.03;5.03;;;17.60;74.50;;;;;;4991067;28;96100;-42
2022/06/18 08:31:29;;;;;;;6.85;5.07;;;17.60;74.40;;;;;;4987157;28;95701;-42
2022/06/18 08:34:00;;;;;;;5.18;4.68;;;17.60;74.30;;;;;;4992251;28;95744;-43
2022/06/18 08:36:34;;;;;;;7.50;4.80;;;17.60;74.40;;;;;;4998073;28;95785;-42
2022/06/18 08:39:06;;;;;;;6.13;5.40;;;17.60;74.40;;;;;;4994919;28;97281;-42
2022/06/18 08:42:03;;;;;;;6.32;4.60;;;17.60;74.40;;;;;;4993760;28;95822;-42
2022/06/18 08:44:55;;;;;;;7.00;4.78;;;17.60;74.50;;;;;;4994947;28;96314;-42
2022/06/18 08:47:46;;;;;;;5.07;4.57;;;17.60;74.60;;;;;;4990067;28;95802;-42
2022/06/18 08:50:42;;;;;;;5.57;4.80;;;17.60;74.70;;;;;;4994822;28;95900;-42
2022/06/18 08:53:29;;;;;;;6.03;5.07;;;17.60;74.80;;;;;;4999019;28;96092;-42
2022/06/18 08:56:17;;;;;;;6.20;4.50;;;17.70;74.90;;;;;;4997394;28;95926;-42
2022/06/18 08:59:06;;;;;;;7.00;4.45;;;17.60;74.40;;;;;;4994869;28;95796;-41
2022/06/18 09:01:43;;;;;;;8.07;5.25;;;17.60;74.70;;;;;;4989954;28;96195;-41
2022/06/18 09:04:33;;;;;;;5.18;4.55;;;17.60;74.80;;;;;;4995670;28;95695;-41
2022/06/18 09:07:08;;;;;;;4.95;4.45;;;17.50;74.70;;;;;;4997924;28;95295;-43
2022/06/18 09:09:44;;;;;;;6.63;5.53;;;17.50;74.80;;;;;;4993448;28;95308;-41
2022/06/18 09:12:29;;;;;;;6.05;4.97;;;17.50;74.80;;;;;;4994642;28;95896;-41
2022/06/18 09:14:59;;;;;;;5.30;4.57;;;17.50;74.80;;;;;;5002312;28;95640;-42
2022/06/18 09:17:41;;;;;;;6.78;4.35;;;17.50;74.80;;;;;;4991435;28;97798;-41
2022/06/18 09:20:37;;;;;;;6.40;5.70;;;17.50;74.80;;;;;;4999275;28;95786;-42
2022/06/18 09:23:31;;;;;;;5.25;4.75;;;17.50;74.70;;;;;;4996796;28;96047;-41
2022/06/18 09:26:09;;;;;;;6.15;5.30;;;17.40;74.60;;;;;;4993437;28;95755;-41
2022/06/18 09:28:52;;;;;;;7.65;5.05;;;17.50;74.00;;;;;;4993334;28;95635;-41
2022/06/18 09:31:34;;;;;;;4.70;4.25;;;17.50;74.50;;;;;;4996025;28;95920;-41
2022/06/18 09:34:16;;;;;;;;;;;17.50;74.50;;;;;;5003347;28;95918;-42
2022/06/18 09:36:52;;;;;;;5.45;4.95;;;17.40;74.40;;;;;;5000070;28;95733;-41
2022/06/18 09:39:41;;;;;;;7.03;5.38;;;17.50;74.50;;;;;;5007452;28;97055;-41
2022/06/18 09:42:32;;;;;;;6.50;5.00;;;17.50;74.50;;;;;;4993095;28;96234;-40
2022/06/18 09:45:17;;;;;;;5.60;4.95;;;17.40;74.50;;;;;;5006316;28;96462;-42
2022/06/18 09:47:49;;;;;;;7.57;5.55;;;17.40;74.50;;;;;;5006272;28;95802;-42
2022/06/18 09:50:59;;;;;;;5.60;5.07;;;17.40;74.50;;;;;;4996212;28;95577;-43
2022/06/18 09:53:37;;;;;;;10.35;5.50;;;17.40;74.30;;;;;;5001919;28;95973;-43
2022/06/18 09:56:26;;;;;;;6.57;5.70;;;17.30;74.40;;;;;;4997488;28;95884;-42
2022/06/18 09:59:16;;;;;;;5.78;4.75;;;17.40;74.50;;;;;;4996545;28;95790;-42
2022/06/18 10:01:52;;;;;;;6.55;5.88;;;17.30;74.30;;;;;;4993209;27;96437;-44
2022/06/18 10:07:27;;;;;;;8.75;5.57;;;17.30;74.20;;;;;;4994180;28;96379;-42
2022/06/18 10:10:09;;;;;;;7.97;5.72;;;17.30;74.10;;;;;;4995571;28;95884;-42
2022/06/18 10:12:53;;;;;;;7.60;6.80;;;17.20;74.10;;;;;;4994173;28;95798;-41
2022/06/18 10:15:26;;;;;;;10.32;6.47;;;17.20;74.10;;;;;;4989302;27;98729;-42
2022/06/18 10:18:30;;;;;;;10.35;7.65;;;17.20;74.10;;;;;;4993547;28;95842;-40
2022/06/18 10:21:20;;;;;;;9.68;6.25;;;17.20;74.10;;;;;;4995063;28;95685;-40
2022/06/18 10:24:02;;;;;;;9.18;6.63;;;17.20;74.00;;;;;;4992334;28;95564;-40
2022/06/18 10:26:35;;;;;;;8.23;7.00;;;17.20;74.10;;;;;;4994207;28;97488;-38
2022/06/18 10:29:41;;;;;;;8.88;6.97;;;17.20;74.00;;;;;;4992681;28;96759;-40
2022/06/18 10:32:26;;;;;;;8.60;7.20;;;17.20;74.10;;;;;;4982259;28;95775;-40
2022/06/18 10:35:23;;;;;;;9.98;7.75;;;17.10;74.00;;;;;;4999055;28;98468;-37
2022/06/18 10:38:06;;;;;;;10.07;7.95;;;17.10;73.90;;;;;;4998881;28;97033;-40
2022/06/18 10:41:17;;;;;;;8.45;7.38;;;17.10;73.90;;;;;;4996408;28;95909;-40
2022/06/18 10:44:13;;;;;;;9.82;8.02;;;17.10;74.00;;;;;;4994024;28;95816;-40
2022/06/18 10:46:45;;;;;;;9.85;8.43;;;17.00;73.80;;;;;;4987660;28;95683;-41
2022/06/18 10:49:27;;;;;;;10.10;8.23;;;17.00;73.80;;;;;;4994574;28;95855;-41
2022/06/18 10:52:03;;;;;;;11.05;9.68;;;17.00;74.20;;;;;;4995717;28;96102;-40
2022/06/18 10:54:37;;;;;;;10.32;8.98;;;17.00;73.90;;;;;;4996133;28;95781;-42
2022/06/18 10:57:23;;;;;;;10.18;9.02;;;17.00;73.80;;;;;;4994221;28;95962;-42
2022/06/18 11:00:08;;;;;;;11.27;9.57;;;16.90;73.70;;;;;;4994422;28;95504;-43
2022/06/18 11:02:43;;;;;;;11.27;9.20;;;16.90;73.70;;;;;;4991869;28;97651;-42
2022/06/18 11:05:21;;;;;;;14.02;10.00;;;16.90;73.60;;;;;;4997923;28;95934;-42
2022/06/18 11:07:55;;;;;;;12.98;9.95;;;16.80;73.60;;;;;;5000217;28;95855;-42
2022/06/18 11:10:43;;;;;;;12.15;9.77;;;16.80;73.60;;;;;;4999370;28;95887;-42
2022/06/18 11:13:27;;;;;;;11.35;9.27;;;16.70;73.60;;;;;;4991687;28;96252;-42
2022/06/18 11:16:11;;;;;;;12.73;10.93;;;16.70;73.50;;;;;;4990674;28;96377;-40
2022/06/18 11:18:44;;;;;;;13.18;9.85;;;16.70;73.30;;;;;;4996631;28;95684;-42
2022/06/18 11:21:23;;;;;;;14.82;10.80;;;16.60;73.40;;;;;;4990156;28;95671;-42
2022/06/18 11:24:27;;;;;;;14.40;10.75;;;16.60;73.20;;;;;;4991769;28;96430;-42
2022/06/18 11:27:02;;;;;;;14.10;10.13;;;16.50;73.30;;;;;;4996861;28;95919;-41
2022/06/18 11:29:32;;;;;;;13.95;10.60;;;16.50;73.30;;;;;;4992822;28;96017;-41
2022/06/18 11:32:35;;;;;;;14.60;11.02;;;16.50;73.30;;;;;;4985241;28;95792;-41
2022/06/18 11:35:13;;;;;;;12.20;10.48;;;16.50;73.30;;;;;;4995019;28;96115;-42
2022/06/18 11:37:57;;;;;;;11.20;9.50;;;16.50;73.10;;;;;;4989931;28;95971;-41
2022/06/18 11:40:29;;;;;;;12.98;10.23;;;16.50;73.40;;;;;;4992827;28;95777;-42
2022/06/18 11:43:10;;;;;;;14.38;11.52;;;16.40;73.30;;;;;;4997663;28;97591;-42
2022/06/18 11:46:04;;;;;;;14.90;11.75;;;16.40;73.20;;;;;;4986400;27;96062;-42
2022/06/18 11:48:55;;;;;;;13.73;11.77;;;16.30;73.10;;;;;;4991363;28;95413;-42
2022/06/18 11:52:08;;;;;;;14.30;11.70;;;16.20;73.00;;;;;;4997178;28;95660;-41
2022/06/18 11:55:16;;;;;;;16.52;12.35;;;16.20;73.00;;;;;;4996434;28;96053;-41
2022/06/18 11:58:10;;;;;;;13.60;11.52;;;16.10;73.00;;;;;;4998032;28;97172;-42
2022/06/18 12:01:09;;;;;;;12.77;10.80;;;16.10;72.90;;;;;;4996110;27;95813;-42
2022/06/18 12:03:46;;;;;;;14.60;11.63;;;16.00;72.90;;;;;;4995365;28;95652;-41
2022/06/18 12:06:37;;;;;;;15.00;11.95;;;16.00;73.00;;;;;;4996580;28;95785;-39
2022/06/18 12:09:30;;;;;;;15.38;11.27;;;16.00;72.90;;;;;;4997620;28;96220;-41
2022/06/18 12:12:25;;;;;;;17.48;11.73;;;15.90;72.90;;;;;;4993267;28;96053;-41
2022/06/18 12:15:05;;;;;;;14.32;11.70;;;15.90;72.90;;;;;;4992692;28;95302;-42
2022/06/18 12:17:38;;;;;;;14.27;11.13;;;15.80;72.90;;;;;;4988804;28;95709;-41
2022/06/18 12:20:35;;;;;;;13.75;10.20;;;15.80;72.90;;;;;;5000229;28;96058;-41
2022/06/18 12:23:23;;;;;;;15.43;11.90;;;15.80;72.90;;;;;;4996623;28;96806;-41
2022/06/18 12:26:13;;;;;;;15.43;12.48;;;15.70;72.90;;;;;;4993835;28;95749;-41
2022/06/18 12:28:47;;;;;;;16.77;11.52;;;15.70;72.90;;;;;;4991452;28;95706;-40
2022/06/18 12:31:34;;;;;;;17.05;12.82;;;15.70;72.80;;;;;;4999350;28;95889;-40
2022/06/18 12:34:41;;;;;;;15.73;11.77;;;15.60;72.90;;;;;;4997658;28;95227;-41
2022/06/18 12:37:22;;;;;;;15.55;11.90;;;15.50;72.90;;;;;;5003477;28;95703;-40
2022/06/18 12:39:58;;;;;;;20.40;12.73;;;15.50;72.80;;;;;;4999491;28;95602;-41
2022/06/18 12:42:34;;;;;;;15.48;12.52;;;15.50;72.90;;;;;;5006654;28;96287;-41
2022/06/18 12:45:47;;;;;;;19.15;12.93;;;15.40;72.90;;;;;;4997295;28;95981;-41
2022/06/18 12:48:29;;;;;;;;;;;15.40;72.80;;;;;;5004353;28;95924;-41
2022/06/18 12:51:30;;;;;;;14.93;11.85;;;15.40;72.50;;;;;;5002154;28;95685;-42
2022/06/18 12:54:15;;;;;;;14.85;12.20;;;15.40;72.80;;;;;;4997712;28;96419;-42
2022/06/18 12:57:17;;;;;;;15.15;12.00;;;15.30;72.60;;;;;;4998764;28;95461;-39
2022/06/18 13:00:03;;;;;;;17.35;11.68;;;15.30;72.80;;;;;;4999926;28;95755;-40
2022/06/18 13:02:51;;;;;;;16.02;12.75;;;15.20;72.70;;;;;;4993815;28;95667;-41
2022/06/18 13:05:37;;;;;;;17.15;12.07;;;15.20;72.80;;;;;;5004599;28;96851;-40
2022/06/18 13:08:36;;;;;;;16.20;11.85;;;15.20;72.80;;;;;;4999755;28;95964;-42
2022/06/18 13:11:20;;;;;;;17.95;12.93;;;15.10;72.80;;;;;;5004155;28;95811;-41
2022/06/18 13:14:23;;;;;;;14.20;11.90;;;15.10;72.80;;;;;;4996144;28;95862;-41
2022/06/18 13:17:05;;;;;;;16.80;11.82;;;15.00;72.70;;;;;;4987317;27;95894;-41
2022/06/18 13:19:45;;;;;;;15.00;11.40;;;15.00;72.90;;;;;;4991229;28;95783;-41
2022/06/18 13:22:17;;;;;;;19.77;11.40;;;15.00;72.80;;;;;;4992204;28;95761;-41
2022/06/18 13:28:21;;;;;;;12.85;10.88;;;14.90;72.80;;;;;;4998507;28;96124;-41
2022/06/18 13:31:11;;;;;;;14.32;12.05;;;14.90;72.90;;;;;;4996060;27;98311;-41
2022/06/18 13:34:01;;;;;;;13.35;10.73;;;14.90;73.00;;;;;;4995498;28;96046;-40
2022/06/18 13:36:56;;;;;;;12.35;10.68;;;14.80;73.00;;;;;;4993404;28;95824;-41
2022/06/18 13:39:38;;;;;;;14.70;10.60;;;14.80;72.90;;;;;;4998778;28;96413;-40
2022/06/18 13:42:45;;;;;;;13.32;11.15;;;14.80;73.10;;;;;;4994813;28;95901;-39
2022/06/18 13:45:30;;;;;;;16.77;12.18;;;14.70;73.10;;;;;;5003862;28;95433;-41
2022/06/18 13:48:03;;;;;;;15.27;11.65;;;14.70;73.80;;;;;;5008166;28;95671;-41
2022/06/18 13:50:54;;;;;;;18.13;14.50;;;14.70;73.20;;;;;;4993056;28;96354;-40
2022/06/18 13:53:26;;;;;;;19.42;13.15;;;14.70;73.30;;;;;;4997794;28;96696;-41
2022/06/18 13:56:22;;;;;;;17.25;13.90;;;14.70;73.10;;;;;;5004748;28;95929;-39
2022/06/18 13:58:58;;;;;;;18.70;14.25;;;14.60;73.10;;;;;;4995308;28;97873;-43
2022/06/18 14:01:44;;;;;;;18.10;14.85;;;14.60;73.10;;;;;;4991848;28;96278;-41
2022/06/18 14:04:30;;;;;;;18.95;15.48;;;14.60;73.30;;;;;;4996576;28;95779;-41
2022/06/18 14:07:15;;;;;;;21.05;15.55;;;14.60;73.30;;;;;;4992614;28;95324;-42
2022/06/18 14:09:52;;;;;;;20.15;15.85;;;14.50;73.20;;;;;;4993016;28;96452;-41
2022/06/18 14:12:37;;;;;;;23.63;16.63;;;14.50;73.30;;;;;;4995923;28;96383;-41
2022/06/18 14:15:17;;;;;;;21.58;16.60;;;14.50;73.40;;;;;;4999108;28;96027;-41